Time;durP1;ratioP1;P1;durP2;ratioP2;P2;SDS_P1;SDS_P2;PMS_P1;PMS_P2;Temp;Humidity;BMP_temperature;BMP_pressure;BME280_temperature;BME280_humidity;BME280_pressure;Samples;Min_cycle;Max_cycle;Signal;HPM_P1;HPM_P2
2023/01/31 00:01:25;;;;;;;9.80;6.67;;;5.20;99.90;;;;;;5074931;28;20419;-65
2023/01/31 00:03:59;;;;;;;9.30;5.93;;;5.10;99.90;;;;;;5076812;28;20528;-65
2023/01/31 00:06:27;;;;;;;10.50;6.30;;;5.10;99.90;;;;;;5079661;28;20467;-65
2023/01/31 00:08:54;;;;;;;8.47;6.33;;;5.00;99.90;;;;;;5068515;28;20457;-66
2023/01/31 00:11:22;;;;;;;8.83;6.47;;;4.90;99.90;;;;;;5078453;28;20412;-65
2023/01/31 00:13:48;;;;;;;7.57;5.07;;;4.80;99.90;;;;;;5054367;28;20463;-64
2023/01/31 00:16:15;;;;;;;9.40;5.90;;;4.90;99.90;;;;;;5076007;28;20471;-64
2023/01/31 00:18:42;;;;;;;9.43;7.27;;;5.00;99.90;;;;;;5074832;28;20428;-65
2023/01/31 00:21:14;;;;;;;9.10;6.67;;;5.00;99.90;;;;;;5075631;28;21362;-65
2023/01/31 00:23:41;;;;;;;9.20;6.20;;;4.90;99.90;;;;;;5079823;28;20546;-64
2023/01/31 00:26:13;;;;;;;8.10;5.53;;;4.90;99.90;;;;;;5070980;28;21041;-65
2023/01/31 00:28:40;;;;;;;7.83;6.07;;;4.80;99.90;;;;;;5076778;28;20428;-65
2023/01/31 00:31:06;;;;;;;8.90;6.10;;;4.80;99.90;;;;;;5077106;28;21148;-65
2023/01/31 00:33:36;;;;;;;10.43;6.60;;;4.90;99.90;;;;;;5070092;28;20443;-65
2023/01/31 00:36:07;;;;;;;6.90;5.47;;;4.90;99.90;;;;;;5078572;28;20949;-65
2023/01/31 00:38:33;;;;;;;6.83;4.90;;;4.90;99.90;;;;;;5071830;28;20422;-65
2023/01/31 00:40:59;;;;;;;16.63;6.60;;;4.80;99.90;;;;;;5075958;28;20473;-65
2023/01/31 00:43:25;;;;;;;7.30;6.20;;;4.80;99.90;;;;;;5075739;28;20476;-65
2023/01/31 00:45:50;;;;;;;7.43;5.10;;;4.80;99.90;;;;;;5075498;28;20502;-64
2023/01/31 00:48:16;;;;;;;8.20;6.63;;;4.70;99.90;;;;;;5072176;28;20457;-64
2023/01/31 00:50:42;;;;;;;9.10;6.13;;;4.70;99.90;;;;;;5080054;28;20266;-64
2023/01/31 00:53:08;;;;;;;8.63;5.60;;;4.50;99.90;;;;;;5076417;28;20234;-64
2023/01/31 00:55:33;;;;;;;8.57;6.00;;;4.60;99.90;;;;;;5075594;28;20186;-64
2023/01/31 00:57:59;;;;;;;9.13;6.20;;;4.70;99.90;;;;;;5076224;28;20427;-65
2023/01/31 01:00:24;;;;;;;10.47;5.83;;;4.70;99.90;;;;;;5079406;28;20559;-65
2023/01/31 01:02:50;;;;;;;8.93;5.70;;;4.60;99.90;;;;;;5072804;28;20249;-64
2023/01/31 01:05:16;;;;;;;7.70;6.17;;;4.70;99.90;;;;;;5076552;28;20231;-64
2023/01/31 01:07:41;;;;;;;10.17;6.50;;;4.80;99.90;;;;;;5071416;28;20209;-64
2023/01/31 01:10:08;;;;;;;8.33;5.93;;;4.80;99.90;;;;;;5070756;28;20183;-65
2023/01/31 01:12:33;;;;;;;8.50;6.43;;;4.80;99.90;;;;;;5071836;28;20788;-64
2023/01/31 01:14:59;;;;;;;8.43;6.43;;;4.60;99.90;;;;;;5073563;28;20957;-65
2023/01/31 01:17:24;;;;;;;8.83;6.90;;;4.60;99.90;;;;;;5073450;28;20202;-65
2023/01/31 01:19:50;;;;;;;7.30;5.50;;;4.70;99.90;;;;;;5073981;28;20273;-65
2023/01/31 01:22:16;;;;;;;10.30;6.90;;;4.70;99.90;;;;;;5076003;28;20330;-64
2023/01/31 01:24:44;;;;;;;8.83;6.50;;;4.70;99.90;;;;;;5076792;28;20257;-65
2023/01/31 01:27:11;;;;;;;8.23;6.07;;;4.60;99.90;;;;;;5068839;28;20207;-65
2023/01/31 01:29:37;;;;;;;8.70;7.30;;;4.60;99.90;;;;;;5076061;28;20947;-65
2023/01/31 01:32:04;;;;;;;10.57;6.50;;;4.60;99.90;;;;;;5073029;28;20501;-64
2023/01/31 01:34:30;;;;;;;7.00;5.83;;;4.50;99.90;;;;;;5073611;28;20523;-64
2023/01/31 01:36:56;;;;;;;8.37;6.23;;;4.60;99.90;;;;;;5056190;28;20453;-65
2023/01/31 01:39:22;;;;;;;8.20;6.07;;;4.60;99.90;;;;;;5075978;28;21308;-65
2023/01/31 01:41:49;;;;;;;6.83;5.87;;;4.60;99.90;;;;;;5069114;28;20227;-65
2023/01/31 01:44:46;;;;;;;8.70;7.17;;;4.60;99.90;;;;;;5074101;28;20884;-64
2023/01/31 01:47:17;;;;;;;7.73;5.67;;;4.50;99.90;;;;;;5073351;28;20453;-64
2023/01/31 01:49:48;;;;;;;9.33;6.07;;;4.40;99.90;;;;;;5071711;28;20444;-65
2023/01/31 01:52:14;;;;;;;10.73;6.60;;;4.40;99.90;;;;;;5067111;28;20441;-65
2023/01/31 01:54:49;;;;;;;8.07;6.80;;;4.40;99.90;;;;;;5073950;28;20441;-65
2023/01/31 01:57:20;;;;;;;9.83;6.73;;;4.30;99.90;;;;;;5073345;28;20556;-65
2023/01/31 02:00:00;;;;;;;11.60;7.10;;;4.30;99.90;;;;;;5071104;28;20875;-65
2023/01/31 02:02:26;;;;;;;10.23;6.57;;;4.40;99.90;;;;;;5059320;28;20475;-65
2023/01/31 02:04:52;;;;;;;8.30;6.20;;;4.40;99.90;;;;;;5071503;28;20479;-65
2023/01/31 02:07:18;;;;;;;7.83;6.33;;;4.40;99.90;;;;;;5071071;28;20539;-64
2023/01/31 02:10:03;;;;;;;10.63;6.90;;;4.30;99.90;;;;;;5071456;28;20667;-65
2023/01/31 02:12:30;;;;;;;10.60;7.60;;;4.20;99.90;;;;;;5074593;28;20725;-64
2023/01/31 02:14:56;;;;;;;9.50;6.83;;;4.30;99.90;;;;;;5069990;28;20436;-65
2023/01/31 02:17:22;;;;;;;8.20;6.40;;;4.30;99.90;;;;;;5074919;28;20461;-65
2023/01/31 02:20:15;;;;;;;9.60;6.93;;;4.30;99.90;;;;;;5073353;28;20186;-64
2023/01/31 02:23:11;;;;;;;10.50;7.87;;;4.20;99.90;;;;;;5075955;28;20210;-65
2023/01/31 02:25:40;;;;;;;13.40;7.63;;;4.20;99.90;;;;;;5071156;28;20868;-65
2023/01/31 02:28:05;;;;;;;11.17;7.80;;;4.30;99.90;;;;;;5072340;28;20456;-65
2023/01/31 02:30:34;;;;;;;11.97;8.30;;;4.30;99.90;;;;;;5072830;28;20452;-65
2023/01/31 02:33:14;;;;;;;12.07;8.03;;;4.40;99.90;;;;;;5070926;28;20194;-65
2023/01/31 02:36:08;;;;;;;11.87;8.03;;;4.40;99.90;;;;;;5073910;28;20443;-65
2023/01/31 02:39:12;;;;;;;13.20;7.07;;;4.40;99.90;;;;;;5072119;28;20438;-65
2023/01/31 02:41:44;;;;;;;10.37;7.77;;;4.40;99.90;;;;;;5031135;28;20459;-65
2023/01/31 02:47:24;;;;;;;15.63;8.50;;;4.30;99.90;;;;;;5067954;28;20478;-65
2023/01/31 02:50:12;;;;;;;12.70;7.80;;;4.40;99.90;;;;;;5074038;28;20437;-64
2023/01/31 02:52:47;;;;;;;11.23;7.80;;;4.30;99.90;;;;;;5073044;28;20498;-65
2023/01/31 02:58:38;;;;;;;14.70;9.77;;;4.20;99.90;;;;;;5074262;28;20474;-65
2023/01/31 03:01:06;;;;;;;11.43;8.20;;;4.20;99.90;;;;;;5067016;28;20455;-64
2023/01/31 03:03:34;;;;;;;12.30;8.83;;;4.20;99.90;;;;;;5071897;28;20556;-65
2023/01/31 03:06:24;;;;;;;13.93;9.00;;;4.20;99.90;;;;;;5066899;28;20459;-65
2023/01/31 03:08:56;;;;;;;16.50;9.60;;;4.20;99.90;;;;;;5069131;28;20521;-65
2023/01/31 03:11:28;;;;;;;11.50;8.57;;;4.20;99.90;;;;;;5056612;28;20760;-64
2023/01/31 03:14:06;;;;;;;12.50;8.90;;;4.20;99.90;;;;;;5071821;28;20440;-65
2023/01/31 03:20:14;;;;;;;13.20;9.77;;;4.30;99.90;;;;;;5076706;28;20457;-65
2023/01/31 03:22:47;;;;;;;17.40;9.13;;;4.30;99.90;;;;;;5075017;28;20463;-65
2023/01/31 03:25:17;;;;;;;13.43;9.67;;;4.40;99.90;;;;;;5056312;28;20559;-65
2023/01/31 03:27:48;;;;;;;20.10;10.60;;;4.30;99.90;;;;;;5074346;28;20495;-65
2023/01/31 03:30:18;;;;;;;15.73;9.13;;;4.30;99.90;;;;;;5070693;28;20937;-65
2023/01/31 03:32:57;;;;;;;14.00;8.77;;;4.40;99.90;;;;;;5072308;28;20440;-64
2023/01/31 03:35:26;;;;;;;12.90;8.70;;;4.40;99.90;;;;;;5070298;28;20445;-65
2023/01/31 03:38:04;;;;;;;16.90;9.47;;;4.50;99.90;;;;;;5072518;28;20535;-65
2023/01/31 03:40:37;;;;;;;16.80;9.50;;;4.40;99.90;;;;;;5072981;28;20463;-65
2023/01/31 03:43:23;;;;;;;16.00;9.43;;;4.40;99.90;;;;;;5070757;28;20558;-64
2023/01/31 03:45:58;;;;;;;18.13;9.87;;;4.40;99.90;;;;;;5075922;28;20455;-64
2023/01/31 03:48:30;;;;;;;16.00;9.70;;;4.40;99.90;;;;;;5054811;28;21054;-64
2023/01/31 03:50:59;;;;;;;14.37;9.33;;;4.40;99.90;;;;;;5076650;28;20448;-64
2023/01/31 03:53:48;;;;;;;15.93;9.83;;;4.50;99.90;;;;;;5061089;28;21031;-63
2023/01/31 03:56:22;;;;;;;13.43;9.50;;;4.40;99.90;;;;;;5074308;28;20495;-64
2023/01/31 03:58:52;;;;;;;15.83;9.93;;;4.30;99.90;;;;;;5076849;28;20452;-65
2023/01/31 04:01:21;;;;;;;14.83;9.90;;;4.30;99.90;;;;;;5075803;28;21014;-64
2023/01/31 04:03:53;;;;;;;13.00;9.80;;;4.40;99.90;;;;;;5072784;28;20510;-65
2023/01/31 04:06:19;;;;;;;13.27;9.70;;;4.40;99.90;;;;;;5073573;28;20474;-64
2023/01/31 04:08:44;;;;;;;18.83;10.40;;;4.40;99.90;;;;;;5074371;28;20432;-64
2023/01/31 04:11:13;;;;;;;15.13;10.17;;;4.40;99.90;;;;;;5073287;28;20805;-66
2023/01/31 04:13:40;;;;;;;15.60;10.23;;;4.40;99.90;;;;;;5073591;28;20293;-64
2023/01/31 04:16:06;;;;;;;15.43;9.47;;;4.40;99.90;;;;;;5074763;28;20650;-64
2023/01/31 04:18:31;;;;;;;14.87;10.53;;;4.40;99.90;;;;;;5078669;28;20448;-64
2023/01/31 04:20:57;;;;;;;19.20;11.90;;;4.40;99.90;;;;;;5073005;28;21031;-64
2023/01/31 04:23:23;;;;;;;17.13;10.17;;;4.40;99.90;;;;;;5077199;28;20972;-64
2023/01/31 04:25:51;;;;;;;16.33;11.00;;;4.40;99.90;;;;;;5074122;28;21010;-64
2023/01/31 04:28:17;;;;;;;16.90;10.17;;;4.40;99.90;;;;;;5075912;28;20448;-64
2023/01/31 04:30:42;;;;;;;14.63;10.53;;;4.20;99.90;;;;;;5073453;28;20452;-64
2023/01/31 04:33:08;;;;;;;14.13;9.77;;;4.10;99.90;;;;;;5070059;28;20201;-66
2023/01/31 04:35:33;;;;;;;19.97;10.20;;;4.10;99.90;;;;;;5080553;28;20190;-64
2023/01/31 04:37:59;;;;;;;16.67;10.53;;;4.10;99.90;;;;;;5062117;28;20542;-65
2023/01/31 04:40:25;;;;;;;22.13;11.13;;;4.00;99.90;;;;;;5071516;28;20206;-64
2023/01/31 04:42:50;;;;;;;14.90;10.00;;;4.00;99.90;;;;;;5077057;28;20214;-64
2023/01/31 04:45:16;;;;;;;21.40;10.80;;;4.10;99.90;;;;;;5056040;28;20894;-64
2023/01/31 04:47:41;;;;;;;14.77;9.60;;;4.00;99.90;;;;;;5056190;28;20367;-63
2023/01/31 04:50:08;;;;;;;13.83;10.10;;;3.90;99.90;;;;;;5077029;28;20227;-64
2023/01/31 04:52:33;;;;;;;15.67;10.50;;;4.00;99.90;;;;;;5076986;28;20187;-65
2023/01/31 04:54:59;;;;;;;16.90;11.50;;;4.00;99.90;;;;;;5074595;28;20463;-64
2023/01/31 04:57:25;;;;;;;14.10;9.43;;;4.00;99.90;;;;;;5076459;28;20849;-65
2023/01/31 04:59:51;;;;;;;19.03;11.30;;;3.90;99.90;;;;;;5057801;28;20227;-65
2023/01/31 05:02:16;;;;;;;15.57;10.90;;;3.90;99.90;;;;;;5076823;28;20475;-65
2023/01/31 05:04:42;;;;;;;17.60;10.70;;;3.90;99.90;;;;;;5076481;28;20193;-66
2023/01/31 05:07:08;;;;;;;16.97;11.33;;;3.80;99.90;;;;;;5057845;28;20225;-65
2023/01/31 05:09:33;;;;;;;20.73;12.23;;;3.80;99.90;;;;;;5077173;28;20205;-65
2023/01/31 05:11:59;;;;;;;18.33;10.77;;;3.80;99.90;;;;;;5073854;28;20186;-66
2023/01/31 05:14:24;;;;;;;17.20;11.47;;;3.80;99.90;;;;;;5075058;28;20244;-65
2023/01/31 05:16:50;;;;;;;17.73;10.37;;;3.80;99.90;;;;;;5078233;28;20297;-65
2023/01/31 05:19:16;;;;;;;17.70;11.33;;;3.70;99.90;;;;;;5072206;28;21090;-65
2023/01/31 05:21:54;;;;;;;14.37;9.57;;;3.70;99.90;;;;;;5073396;28;20185;-65
2023/01/31 05:24:23;;;;;;;17.40;10.30;;;3.70;99.90;;;;;;5070943;28;20467;-66
2023/01/31 05:26:51;;;;;;;14.30;9.47;;;3.70;99.90;;;;;;5071786;28;20526;-66
2023/01/31 05:29:18;;;;;;;28.43;12.33;;;3.70;99.90;;;;;;5071990;28;20522;-66
2023/01/31 05:31:44;;;;;;;17.43;10.50;;;3.70;99.90;;;;;;5072827;28;20454;-66
2023/01/31 05:34:13;;;;;;;22.33;10.80;;;3.60;99.90;;;;;;5070415;28;20456;-66
2023/01/31 05:36:40;;;;;;;24.17;12.07;;;3.60;99.90;;;;;;5074526;28;20456;-66
2023/01/31 05:39:05;;;;;;;17.47;10.50;;;3.50;99.90;;;;;;5077611;28;20443;-66
2023/01/31 05:41:31;;;;;;;17.30;11.07;;;3.50;99.90;;;;;;5054144;28;20448;-66
2023/01/31 05:43:57;;;;;;;16.50;10.50;;;3.50;99.90;;;;;;5054571;28;20305;-66
2023/01/31 05:46:22;;;;;;;14.97;9.70;;;3.50;99.90;;;;;;5071834;28;20230;-66
2023/01/31 05:48:49;;;;;;;19.30;12.20;;;3.50;99.90;;;;;;5071644;28;20205;-65
2023/01/31 05:51:14;;;;;;;19.90;11.50;;;3.50;99.90;;;;;;5071970;28;20412;-67
2023/01/31 05:53:40;;;;;;;19.60;11.27;;;3.40;99.90;;;;;;5072955;28;20436;-67
2023/01/31 05:56:06;;;;;;;21.67;12.10;;;3.50;99.90;;;;;;5067800;28;20217;-67
2023/01/31 05:58:31;;;;;;;18.00;11.57;;;3.40;99.90;;;;;;5070715;28;20277;-67
2023/01/31 06:00:57;;;;;;;19.80;13.10;;;3.40;99.90;;;;;;5072246;28;20447;-67
2023/01/31 06:03:22;;;;;;;20.40;12.33;;;3.40;99.90;;;;;;5067859;28;20282;-67
2023/01/31 06:05:48;;;;;;;24.63;13.27;;;3.40;99.90;;;;;;5069323;28;20219;-67
2023/01/31 06:08:13;;;;;;;24.87;12.97;;;3.50;99.90;;;;;;5071617;28;20183;-66
2023/01/31 06:10:39;;;;;;;22.83;13.80;;;3.60;99.90;;;;;;5069317;28;20190;-67
2023/01/31 06:13:06;;;;;;;23.63;12.90;;;3.60;99.90;;;;;;5071470;28;20205;-67
2023/01/31 06:15:32;;;;;;;21.60;12.70;;;3.70;99.90;;;;;;5074699;28;20449;-67
2023/01/31 06:17:58;;;;;;;38.03;15.37;;;3.70;99.90;;;;;;5053320;28;20475;-67
2023/01/31 06:20:24;;;;;;;27.67;15.47;;;3.60;99.90;;;;;;5074454;28;20417;-67
2023/01/31 06:22:50;;;;;;;28.13;14.57;;;3.60;99.90;;;;;;5076391;28;20560;-66
2023/01/31 06:25:16;;;;;;;26.10;13.13;;;3.70;99.90;;;;;;5074460;28;20609;-67
2023/01/31 06:27:42;;;;;;;28.33;13.63;;;3.70;99.90;;;;;;5074696;28;20230;-67
2023/01/31 06:30:09;;;;;;;25.27;12.30;;;3.70;99.90;;;;;;5046462;28;20441;-67
2023/01/31 06:32:35;;;;;;;25.90;12.27;;;3.80;99.90;;;;;;5073401;28;20691;-67
2023/01/31 06:35:01;;;;;;;19.10;11.83;;;3.80;99.90;;;;;;5075572;28;20420;-67
2023/01/31 06:37:26;;;;;;;25.20;13.40;;;3.70;99.90;;;;;;5054091;28;20198;-67
2023/01/31 06:39:52;;;;;;;23.40;13.10;;;3.80;99.90;;;;;;5072275;28;20190;-66
2023/01/31 06:42:17;;;;;;;28.03;12.80;;;3.80;99.90;;;;;;5075384;28;20212;-67
2023/01/31 06:44:43;;;;;;;31.00;14.23;;;3.80;99.90;;;;;;5074052;28;20269;-66
2023/01/31 06:47:08;;;;;;;25.63;13.20;;;3.90;99.90;;;;;;5070781;28;20229;-66
2023/01/31 06:49:34;;;;;;;25.00;12.83;;;3.90;99.90;;;;;;5074118;28;20183;-66
2023/01/31 06:51:59;;;;;;;25.60;14.50;;;4.00;99.90;;;;;;5073226;28;20619;-66
2023/01/31 06:54:25;;;;;;;21.30;13.67;;;4.10;99.90;;;;;;5065761;28;20353;-66
2023/01/31 06:56:51;;;;;;;29.20;14.07;;;4.00;99.90;;;;;;5073719;28;20578;-66
2023/01/31 06:59:16;;;;;;;23.17;14.10;;;4.10;99.90;;;;;;5074850;28;20181;-66
2023/01/31 07:01:42;;;;;;;24.30;13.30;;;4.10;99.90;;;;;;5055720;28;20240;-66
2023/01/31 07:04:07;;;;;;;19.27;12.07;;;4.10;99.90;;;;;;5075144;28;20206;-66
2023/01/31 07:06:33;;;;;;;29.60;15.47;;;4.20;99.90;;;;;;5071614;28;20218;-66
2023/01/31 07:08:58;;;;;;;19.93;11.53;;;4.20;99.90;;;;;;5073669;28;20261;-66
2023/01/31 07:11:24;;;;;;;25.57;14.17;;;4.10;99.90;;;;;;5075960;28;20927;-66
2023/01/31 07:13:50;;;;;;;31.43;13.10;;;4.10;99.90;;;;;;5075621;28;20552;-66
2023/01/31 07:16:16;;;;;;;21.03;12.53;;;4.10;99.90;;;;;;5075544;28;20687;-66
2023/01/31 07:18:41;;;;;;;23.20;13.93;;;4.10;99.90;;;;;;5078826;28;20232;-67
2023/01/31 07:21:07;;;;;;;22.17;12.23;;;4.20;99.90;;;;;;5079400;28;21240;-66
2023/01/31 07:23:32;;;;;;;22.70;12.53;;;4.10;99.90;;;;;;5082220;28;20204;-66
2023/01/31 07:26:02;;;;;;;23.70;12.23;;;4.10;99.90;;;;;;5075644;28;20195;-67
2023/01/31 07:28:28;;;;;;;24.47;13.10;;;3.90;99.90;;;;;;5079882;28;20186;-66
2023/01/31 07:30:53;;;;;;;23.47;12.33;;;4.10;99.90;;;;;;5079042;28;20424;-66
2023/01/31 07:33:19;;;;;;;21.77;13.47;;;4.10;99.90;;;;;;5078954;28;20291;-66
2023/01/31 07:35:44;;;;;;;22.60;11.70;;;4.10;99.90;;;;;;5082244;28;20209;-66
2023/01/31 07:38:10;;;;;;;18.87;11.63;;;4.20;99.90;;;;;;5079728;28;20194;-66
2023/01/31 07:40:35;;;;;;;20.63;11.10;;;4.00;99.90;;;;;;5082075;28;20921;-66
2023/01/31 07:43:01;;;;;;;19.53;11.73;;;4.10;99.90;;;;;;5060690;28;20675;-66
2023/01/31 07:45:26;;;;;;;20.30;12.00;;;4.10;99.90;;;;;;5079413;28;20491;-67
2023/01/31 07:47:55;;;;;;;18.73;11.87;;;4.10;99.90;;;;;;5077068;28;20632;-67
2023/01/31 07:50:21;;;;;;;23.30;11.20;;;4.00;99.90;;;;;;5078537;28;20179;-67
2023/01/31 07:52:47;;;;;;;21.67;11.90;;;4.00;99.90;;;;;;5074806;28;20458;-67
2023/01/31 07:55:13;;;;;;;19.13;12.40;;;3.90;99.90;;;;;;5079691;28;20199;-67
2023/01/31 07:57:38;;;;;;;19.23;12.47;;;3.90;99.90;;;;;;5074985;28;20887;-67
2023/01/31 08:03:31;;;;;;;21.90;12.23;;;3.90;99.90;;;;;;5078322;28;20226;-66
2023/01/31 08:05:35;;;;;;;17.50;11.30;;;3.90;99.90;;;;;;5078000;28;20466;-66
2023/01/31 08:08:09;;;;;;;15.37;10.37;;;3.90;99.90;;;;;;5078925;28;20478;-68
2023/01/31 08:10:34;;;;;;;18.23;10.37;;;3.80;99.90;;;;;;5077315;28;20275;-65
2023/01/31 08:13:00;;;;;;;14.87;10.33;;;3.80;99.90;;;;;;5078411;28;20436;-66
2023/01/31 08:15:26;;;;;;;14.87;10.07;;;3.70;99.90;;;;;;5078037;28;20425;-66
2023/01/31 08:17:51;;;;;;;14.20;9.57;;;3.80;99.90;;;;;;5078164;28;20190;-66
2023/01/31 08:20:18;;;;;;;19.10;11.63;;;3.80;99.90;;;;;;5080427;28;20178;-66
2023/01/31 08:22:43;;;;;;;16.60;10.10;;;3.70;99.90;;;;;;5080558;28;20248;-66
2023/01/31 08:25:09;;;;;;;18.93;11.80;;;3.70;99.90;;;;;;5078842;28;20405;-66
2023/01/31 08:27:35;;;;;;;21.53;10.70;;;3.80;99.90;;;;;;5073057;28;20293;-67
2023/01/31 08:30:01;;;;;;;15.17;10.07;;;3.70;99.90;;;;;;5079817;28;20507;-68
2023/01/31 08:32:26;;;;;;;19.93;10.50;;;3.80;99.90;;;;;;5074152;28;20237;-67
2023/01/31 08:34:52;;;;;;;19.07;10.30;;;3.90;99.90;;;;;;5073149;28;20194;-67
2023/01/31 08:37:17;;;;;;;15.37;9.30;;;4.00;99.90;;;;;;5076164;28;20198;-67
2023/01/31 08:39:43;;;;;;;14.77;9.87;;;4.00;99.90;;;;;;5075895;28;20193;-67
2023/01/31 08:42:08;;;;;;;18.23;9.73;;;4.00;99.90;;;;;;5079050;28;20210;-67
2023/01/31 08:44:37;;;;;;;17.17;9.40;;;4.00;99.90;;;;;;5078033;28;20186;-67
2023/01/31 08:47:02;;;;;;;15.60;10.47;;;4.00;99.90;;;;;;5078019;28;20609;-67
2023/01/31 08:49:28;;;;;;;14.90;9.97;;;4.00;99.90;;;;;;5055997;28;20514;-67
2023/01/31 08:51:53;;;;;;;17.60;10.03;;;4.10;99.90;;;;;;5078239;28;20192;-67
2023/01/31 08:54:19;;;;;;;14.50;9.27;;;4.10;99.90;;;;;;5075021;28;20258;-66
2023/01/31 08:56:44;;;;;;;24.87;10.23;;;4.10;99.90;;;;;;5074611;28;20297;-67
2023/01/31 08:59:11;;;;;;;15.63;10.30;;;4.20;99.90;;;;;;5076679;28;20607;-67
2023/01/31 09:01:37;;;;;;;14.00;9.63;;;4.30;99.90;;;;;;5062330;28;20179;-67
2023/01/31 09:04:03;;;;;;;17.03;9.10;;;4.40;99.90;;;;;;5078038;28;20555;-67
2023/01/31 09:06:28;;;;;;;13.53;8.43;;;4.40;99.90;;;;;;5075165;28;22112;-67
2023/01/31 09:08:56;;;;;;;15.73;9.80;;;4.50;99.90;;;;;;5078127;28;20657;-67
2023/01/31 09:11:21;;;;;;;16.00;8.90;;;4.60;99.90;;;;;;5077780;28;20742;-67
2023/01/31 09:13:51;;;;;;;13.60;9.73;;;4.60;99.90;;;;;;5075768;28;20451;-66
2023/01/31 09:16:17;;;;;;;15.30;9.43;;;4.60;99.90;;;;;;5075351;28;20620;-67
2023/01/31 09:18:42;;;;;;;20.63;9.43;;;4.60;99.90;;;;;;5076857;28;20486;-67
2023/01/31 09:21:13;;;;;;;13.83;9.40;;;4.70;99.90;;;;;;5079602;28;20424;-67
2023/01/31 09:23:40;;;;;;;14.57;8.80;;;4.80;99.90;;;;;;5077873;28;20195;-68
2023/01/31 09:26:05;;;;;;;13.30;9.30;;;4.80;99.90;;;;;;5073814;28;20469;-65
2023/01/31 09:28:31;;;;;;;18.27;11.50;;;4.80;99.90;;;;;;5075452;28;20409;-68
2023/01/31 09:31:05;;;;;;;12.80;8.70;;;4.80;99.90;;;;;;5064963;28;20712;-68
2023/01/31 09:33:32;;;;;;;16.67;8.77;;;4.80;99.90;;;;;;5075786;28;20728;-65
2023/01/31 09:36:09;;;;;;;14.53;8.60;;;4.80;99.90;;;;;;5060540;28;20437;-68
2023/01/31 09:38:35;;;;;;;15.40;8.47;;;4.70;99.90;;;;;;5074753;28;20471;-66
2023/01/31 09:41:04;;;;;;;16.03;9.67;;;4.80;99.90;;;;;;5077010;28;20521;-66
2023/01/31 09:43:38;;;;;;;14.33;9.23;;;4.60;99.90;;;;;;5073557;28;20483;-66
2023/01/31 09:46:08;;;;;;;19.37;10.90;;;4.60;99.90;;;;;;5075670;28;20436;-65
2023/01/31 09:48:39;;;;;;;18.17;10.30;;;4.50;99.90;;;;;;5073800;28;20473;-66
2023/01/31 09:51:05;;;;;;;14.50;9.10;;;4.50;99.90;;;;;;5059053;28;20421;-66
2023/01/31 09:53:35;;;;;;;14.73;10.27;;;4.50;99.90;;;;;;5077977;28;20524;-66
2023/01/31 09:56:39;;;;;;;17.97;9.90;;;4.60;99.90;;;;;;5076830;28;20199;-66
2023/01/31 09:59:16;;;;;;;17.70;10.60;;;4.70;99.90;;;;;;5033998;28;20424;-65
2023/01/31 10:01:59;;;;;;;18.33;10.50;;;4.80;99.90;;;;;;5070061;28;20436;-66
2023/01/31 10:04:46;;;;;;;11.90;8.67;;;5.00;99.90;;;;;;5069330;28;20465;-66
2023/01/31 10:07:21;;;;;;;18.43;10.23;;;5.00;99.90;;;;;;5071456;28;20513;-66
2023/01/31 10:09:52;;;;;;;18.00;9.00;;;5.00;99.90;;;;;;5058375;28;20959;-66
2023/01/31 10:12:28;;;;;;;15.60;9.93;;;5.10;99.90;;;;;;5057874;28;20423;-66
2023/01/31 10:15:05;;;;;;;16.97;10.00;;;5.10;99.90;;;;;;5075288;28;20828;-66
2023/01/31 10:17:50;;;;;;;16.47;8.30;;;5.00;99.90;;;;;;5075295;28;20462;-66
2023/01/31 10:20:28;;;;;;;16.63;10.17;;;5.00;99.90;;;;;;5077013;28;20779;-66
2023/01/31 10:23:26;;;;;;;11.90;9.30;;;5.00;99.90;;;;;;5078499;28;20463;-66
2023/01/31 10:25:58;;;;;;;14.90;9.30;;;5.10;99.90;;;;;;5016656;28;20461;-67
2023/01/31 10:28:28;;;;;;;17.23;9.60;;;5.00;99.90;;;;;;5059804;28;20409;-66
2023/01/31 10:31:03;;;;;;;17.23;9.10;;;5.10;99.90;;;;;;5074896;28;21354;-67
2023/01/31 10:33:54;;;;;;;15.17;9.37;;;5.10;99.90;;;;;;5073469;28;20420;-66
2023/01/31 10:36:48;;;;;;;15.80;10.73;;;5.10;99.90;;;;;;5072819;28;20466;-66
2023/01/31 10:39:35;;;;;;;14.67;9.50;;;5.20;99.90;;;;;;5075213;28;20509;-66
2023/01/31 10:42:24;;;;;;;14.90;9.50;;;5.10;99.90;;;;;;5072327;28;20739;-66
2023/01/31 10:44:56;;;;;;;14.10;9.30;;;5.20;99.90;;;;;;5070977;28;20637;-66
2023/01/31 10:48:04;;;;;;;15.17;10.37;;;5.20;99.90;;;;;;5052390;28;20554;-66
2023/01/31 10:50:56;;;;;;;16.57;9.17;;;5.20;99.90;;;;;;5014769;28;20443;-66
2023/01/31 10:53:49;;;;;;;14.73;9.00;;;5.20;99.90;;;;;;5069374;28;20425;-66
2023/01/31 10:56:31;;;;;;;19.50;9.10;;;5.30;99.90;;;;;;5046976;28;20473;-65
2023/01/31 10:59:00;;;;;;;14.33;7.30;;;5.50;99.90;;;;;;5071737;28;20437;-66
2023/01/31 11:01:25;;;;;;;12.27;7.30;;;5.60;99.90;;;;;;5069403;28;20466;-66
2023/01/31 11:03:53;;;;;;;16.70;9.63;;;5.70;99.90;;;;;;5074647;28;20448;-67
2023/01/31 11:06:20;;;;;;;12.83;8.10;;;5.60;99.90;;;;;;5070028;28;20210;-66
2023/01/31 11:09:10;;;;;;;17.97;7.50;;;5.70;99.90;;;;;;5073065;28;20835;-66
2023/01/31 11:11:55;;;;;;;13.60;6.80;;;5.70;99.90;;;;;;5072960;28;20879;-65
2023/01/31 11:14:21;;;;;;;12.33;7.00;;;5.80;99.90;;;;;;5053983;28;20424;-65
2023/01/31 11:16:49;;;;;;;10.90;7.97;;;5.90;99.90;;;;;;5056508;28;20467;-64
2023/01/31 11:19:25;;;;;;;10.10;6.13;;;6.10;99.90;;;;;;5074114;28;20921;-65
2023/01/31 11:21:52;;;;;;;11.80;6.97;;;6.00;99.90;;;;;;5074743;28;20570;-68
2023/01/31 11:24:28;;;;;;;12.80;7.57;;;6.10;99.90;;;;;;5052356;28;21216;-67
2023/01/31 11:27:05;;;;;;;10.60;7.17;;;6.10;99.90;;;;;;5070950;28;20460;-66
2023/01/31 11:29:34;;;;;;;11.13;7.00;;;5.90;99.90;;;;;;5073325;28;20416;-66
2023/01/31 11:32:04;;;;;;;11.40;7.13;;;5.90;99.90;;;;;;5075909;28;20463;-66
2023/01/31 11:34:30;;;;;;;12.20;7.93;;;5.60;99.90;;;;;;5053900;28;20428;-66
2023/01/31 11:37:17;;;;;;;13.67;7.73;;;5.70;99.90;;;;;;5074580;28;20995;-67
2023/01/31 11:39:57;;;;;;;13.53;7.97;;;5.70;99.90;;;;;;5069478;28;20511;-66
2023/01/31 11:42:23;;;;;;;13.27;7.80;;;5.60;99.90;;;;;;5072874;28;20522;-66
2023/01/31 11:44:57;;;;;;;17.67;8.70;;;5.60;99.90;;;;;;5056637;28;20538;-66
2023/01/31 11:47:50;;;;;;;10.17;6.90;;;5.70;99.90;;;;;;5065926;28;20464;-66
2023/01/31 11:50:29;;;;;;;11.63;7.20;;;5.80;99.90;;;;;;5071686;28;20438;-66
2023/01/31 11:52:57;;;;;;;13.00;6.30;;;5.80;99.90;;;;;;5076111;28;20413;-66
2023/01/31 11:55:23;;;;;;;17.10;7.90;;;5.70;99.90;;;;;;5072525;28;20453;-66
2023/01/31 11:57:58;;;;;;;10.83;6.43;;;5.90;99.90;;;;;;5056451;28;20953;-65
2023/01/31 12:00:29;;;;;;;13.90;7.40;;;5.80;99.90;;;;;;5072847;28;20496;-66
2023/01/31 12:03:04;;;;;;;12.70;7.40;;;5.80;99.90;;;;;;5060487;28;20490;-66
2023/01/31 12:05:43;;;;;;;11.07;7.57;;;5.70;99.90;;;;;;5074246;28;20789;-66
2023/01/31 12:08:32;;;;;;;13.93;8.10;;;5.80;99.90;;;;;;5074477;28;20511;-67
2023/01/31 12:10:58;;;;;;;17.00;6.80;;;5.90;99.90;;;;;;5057804;28;20433;-66
2023/01/31 12:13:24;;;;;;;13.33;7.47;;;5.80;99.90;;;;;;5074856;28;20456;-66
2023/01/31 12:16:02;;;;;;;13.47;7.17;;;5.90;99.90;;;;;;5073130;28;20460;-65
2023/01/31 12:19:02;;;;;;;10.30;6.80;;;6.00;99.90;;;;;;5074760;28;20490;-65
2023/01/31 12:21:53;;;;;;;11.70;6.60;;;6.10;99.90;;;;;;5070679;28;20463;-65
2023/01/31 12:24:41;;;;;;;9.83;6.60;;;6.10;99.90;;;;;;5074400;28;20496;-65
2023/01/31 12:27:28;;;;;;;7.67;5.83;;;6.10;99.90;;;;;;5055250;28;20460;-64
2023/01/31 12:30:05;;;;;;;11.37;6.70;;;6.00;99.90;;;;;;5073764;28;20416;-67
2023/01/31 12:32:52;;;;;;;14.10;7.33;;;5.80;99.90;;;;;;5055632;28;20988;-66
2023/01/31 12:35:29;;;;;;;10.47;7.07;;;5.80;99.90;;;;;;5077989;28;20444;-66
2023/01/31 12:38:39;;;;;;;12.10;6.40;;;5.80;99.90;;;;;;5076384;28;21724;-67
2023/01/31 12:41:36;;;;;;;10.63;6.00;;;5.80;99.90;;;;;;5077583;28;20437;-68
2023/01/31 12:44:23;;;;;;;14.80;6.60;;;5.80;99.90;;;;;;5077253;28;20912;-67
2023/01/31 12:47:28;;;;;;;13.90;6.93;;;5.80;99.90;;;;;;5077212;28;20912;-67
2023/01/31 12:50:01;;;;;;;14.47;7.10;;;5.80;99.90;;;;;;5078002;28;20420;-67
2023/01/31 12:52:49;;;;;;;11.67;6.23;;;5.90;99.90;;;;;;5078343;28;20955;-65
2023/01/31 12:55:31;;;;;;;13.57;7.10;;;5.80;99.90;;;;;;5069045;28;20459;-66
2023/01/31 12:58:09;;;;;;;8.27;6.53;;;5.80;99.90;;;;;;5072150;28;20427;-66
2023/01/31 13:00:58;;;;;;;9.20;6.17;;;5.90;99.90;;;;;;5072152;28;20434;-67
2023/01/31 13:03:41;;;;;;;9.33;6.43;;;6.00;99.90;;;;;;5069090;28;20468;-65
2023/01/31 13:06:40;;;;;;;12.60;6.00;;;6.00;99.90;;;;;;5057932;28;20470;-66
2023/01/31 13:09:29;;;;;;;11.93;6.03;;;6.00;99.90;;;;;;5075339;28;20484;-68
2023/01/31 13:12:18;;;;;;;7.83;4.93;;;5.90;99.90;;;;;;5075926;28;20915;-65
2023/01/31 13:14:55;;;;;;;9.33;5.77;;;5.90;99.90;;;;;;5075613;28;20421;-66
2023/01/31 13:17:27;;;;;;;7.63;6.07;;;6.00;99.90;;;;;;5074656;28;20436;-65
2023/01/31 13:20:01;;;;;;;11.83;6.43;;;6.00;99.90;;;;;;5069417;28;20449;-64